Time;durP1;ratioP1;P1;durP2;ratioP2;P2;SDS_P1;SDS_P2;PMS_P1;PMS_P2;Temp;Humidity;BMP_temperature;BMP_pressure;BME280_temperature;BME280_humidity;BME280_pressure;Samples;Min_cycle;Max_cycle;Signal;HPM_P1;HPM_P2
2024/01/24 00:01:43;;;;;;;0.00;0.00;;;9.70;99.90;;;;;;5002005;28;20019;-89
2024/01/24 00:04:09;;;;;;;0.00;0.00;;;;;;;;;;5002860;28;20027;-89
2024/01/24 00:06:37;;;;;;;0.00;0.00;;;9.80;99.90;;;;;;5004548;28;20081;-89
2024/01/24 00:09:03;;;;;;;0.00;0.00;;;;;;;;;;4999578;28;20035;-87
2024/01/24 00:11:29;;;;;;;0.00;0.00;;;;;;;;;;5003341;28;20077;-89
2024/01/24 00:13:56;;;;;;;0.00;0.00;;;;;;;;;;5002542;28;20018;-89
2024/01/24 00:16:22;;;;;;;0.00;0.00;;;;;;;;;;4998937;28;20038;-90
2024/01/24 00:18:48;;;;;;;0.00;0.00;;;;;;;;;;5003076;28;20035;-90
2024/01/24 00:21:14;;;;;;;0.00;0.00;;;;;;;;;;5007570;28;20003;-89
2024/01/24 00:23:40;;;;;;;0.00;0.00;;;;;;;;;;5011162;28;20034;-90
2024/01/24 00:26:06;;;;;;;0.00;0.00;;;;;;;;;;5007057;28;20011;-89
2024/01/24 00:28:32;;;;;;;0.00;0.00;;;;;;;;;;5004942;28;20023;-88
2024/01/24 00:30:58;;;;;;;0.10;0.10;;;;;;;;;;5004938;28;20045;-89
2024/01/24 00:33:27;;;;;;;0.10;0.10;;;10.00;99.90;;;;;;5008821;28;20035;-90
2024/01/24 00:35:53;;;;;;;0.00;0.00;;;;;;;;;;5005224;28;20219;-89
2024/01/24 00:38:19;;;;;;;0.00;0.00;;;;;;;;;;5012206;28;20042;-89
2024/01/24 00:40:45;;;;;;;0.00;0.00;;;;;;;;;;5011971;28;20029;-89
2024/01/24 00:43:11;;;;;;;0.00;0.00;;;;;;;;;;5007358;28;20082;-88
2024/01/24 00:45:37;;;;;;;0.00;0.00;;;;;;;;;;5012339;28;20027;-89
2024/01/24 00:48:03;;;;;;;0.00;0.00;;;;;;;;;;5006635;28;20038;-88
2024/01/24 00:50:29;;;;;;;0.00;0.00;;;;;;;;;;5003240;28;20042;-88
2024/01/24 00:52:55;;;;;;;0.00;0.00;;;;;;;;;;5007693;28;20010;-89
2024/01/24 00:55:22;;;;;;;0.00;0.00;;;;;;;;;;5009198;28;20023;-88
2024/01/24 00:57:48;;;;;;;0.10;0.10;;;;;;;;;;5008615;28;20042;-90
2024/01/24 01:00:14;;;;;;;0.00;0.00;;;;;;;;;;5003643;28;20046;-88
2024/01/24 01:02:40;;;;;;;0.00;0.00;;;;;;;;;;5008647;28;20057;-88
2024/01/24 01:05:06;;;;;;;0.00;0.00;;;;;;;;;;5004792;28;20577;-88
2024/01/24 01:07:32;;;;;;;0.00;0.00;;;;;;;;;;5001193;28;20018;-87
2024/01/24 01:09:58;;;;;;;0.00;0.00;;;;;;;;;;5009729;28;20034;-89
2024/01/24 01:12:24;;;;;;;0.00;0.00;;;;;;;;;;5003933;28;20030;-90
2024/01/24 01:14:50;;;;;;;0.00;0.00;;;;;;;;;;5009904;28;20035;-88
2024/01/24 01:17:16;;;;;;;0.00;0.00;;;;;;;;;;5005264;28;20117;-89
2024/01/24 01:19:42;;;;;;;0.00;0.00;;;;;;;;;;5004422;28;20087;-89
2024/01/24 01:22:08;;;;;;;0.00;0.00;;;;;;;;;;5006807;28;21207;-89
2024/01/24 01:24:34;;;;;;;0.00;0.00;;;;;;;;;;5003467;28;20022;-90
2024/01/24 01:27:00;;;;;;;0.00;0.00;;;;;;;;;;5003943;28;20046;-91
2024/01/24 01:29:26;;;;;;;0.03;0.03;;;;;;;;;;5005707;28;20015;-89
2024/01/24 01:31:52;;;;;;;0.00;0.00;;;;;;;;;;5007497;28;20030;-90
2024/01/24 01:34:18;;;;;;;0.00;0.00;;;;;;;;;;5010111;28;20034;-88
2024/01/24 01:36:44;;;;;;;0.00;0.00;;;;;;;;;;5002492;28;20026;-90
2024/01/24 01:39:10;;;;;;;0.00;0.00;;;;;;;;;;5003420;28;20030;-88
2024/01/24 01:41:36;;;;;;;0.00;0.00;;;;;;;;;;5008169;28;20025;-89
2024/01/24 01:44:03;;;;;;;0.00;0.00;;;;;;;;;;5008277;28;20053;-89
2024/01/24 01:46:29;;;;;;;0.00;0.00;;;;;;;;;;5006394;28;20038;-89
2024/01/24 01:48:57;;;;;;;0.00;0.00;;;11.00;99.90;;;;;;5000649;28;20038;-88
2024/01/24 01:51:23;;;;;;;0.00;0.00;;;;;;;;;;5008958;28;20082;-88
2024/01/24 01:53:49;;;;;;;0.00;0.00;;;;;;;;;;5005329;28;20031;-89
2024/01/24 01:56:21;;;;;;;0.00;0.00;;;11.10;99.90;;;;;;5003878;28;20006;-89
2024/01/24 01:58:47;;;;;;;0.00;0.00;;;;;;;;;;5006668;28;20081;-90
2024/01/24 02:01:13;;;;;;;0.00;0.00;;;11.20;99.90;;;;;;5002899;28;20022;-88
2024/01/24 02:03:39;;;;;;;0.00;0.00;;;;;;;;;;5010788;28;20026;-89
2024/01/24 02:06:06;;;;;;;0.00;0.00;;;;;;;;;;5007877;28;20057;-88
2024/01/24 02:08:34;;;;;;;0.00;0.00;;;;;;;;;;5001128;28;20011;-89
2024/01/24 02:10:59;;;;;;;0.00;0.00;;;;;;;;;;5003678;28;20035;-89
2024/01/24 02:13:32;;;;;;;0.00;0.00;;;11.40;99.90;;;;;;5005054;28;20037;-88
2024/01/24 02:16:04;;;;;;;0.00;0.00;;;11.30;99.90;;;;;;5022084;23;20113;-92
2024/01/24 02:18:30;;;;;;;0.00;0.00;;;;;;;;;;4971030;28;20026;-92
2024/01/24 02:20:56;;;;;;;0.00;0.00;;;;;;;;;;4973626;28;20041;-92
2024/01/24 02:23:23;;;;;;;0.00;0.00;;;;;;;;;;4970422;28;20038;-89
2024/01/24 02:25:49;;;;;;;0.00;0.00;;;;;;;;;;5000078;28;20488;-93
2024/01/24 02:28:15;;;;;;;0.00;0.00;;;;;;;;;;4969525;28;20581;-92
2024/01/24 02:30:41;;;;;;;0.00;0.00;;;;;;;;;;4997949;28;20122;-91
2024/01/24 02:33:07;;;;;;;0.00;0.00;;;;;;;;;;5000561;28;20038;-92
2024/01/24 02:35:34;;;;;;;0.00;0.00;;;;;;;;;;5001434;28;20033;-92
2024/01/24 02:38:00;;;;;;;0.00;0.00;;;;;;;;;;5001642;28;20038;-92
2024/01/24 02:40:26;;;;;;;0.00;0.00;;;;;;;;;;4999135;28;20038;-92
2024/01/24 02:42:52;;;;;;;0.00;0.00;;;;;;;;;;5003507;28;20509;-92
2024/01/24 02:45:19;;;;;;;0.00;0.00;;;;;;;;;;4998197;28;20034;-91
2024/01/24 02:47:45;;;;;;;0.00;0.00;;;;;;;;;;5000476;28;20027;-92
2024/01/24 02:50:11;;;;;;;0.00;0.00;;;11.40;99.90;;;;;;5002389;28;20034;-91
2024/01/24 02:52:37;;;;;;;0.00;0.00;;;;;;;;;;5007217;28;20051;-91
2024/01/24 02:55:04;;;;;;;0.00;0.00;;;;;;;;;;5002829;28;20086;-92
2024/01/24 02:57:30;;;;;;;0.00;0.00;;;;;;;;;;4998256;28;20038;-93
2024/01/24 02:59:56;;;;;;;0.00;0.00;;;;;;;;;;4996838;28;20034;-92
2024/01/24 03:02:22;;;;;;;0.00;0.00;;;;;;;;;;4973826;28;20037;-92
2024/01/24 03:04:48;;;;;;;0.00;0.00;;;;;;;;;;4995284;28;20061;-92
2024/01/24 03:07:14;;;;;;;0.00;0.00;;;;;;;;;;5004005;28;20038;-91
2024/01/24 03:09:39;;;;;;;0.00;0.00;;;;;;;;;;5001160;28;20081;-92
2024/01/24 03:12:05;;;;;;;0.00;0.00;;;11.40;99.90;;;;;;5012370;28;20063;-91
2024/01/24 03:14:31;;;;;;;0.00;0.00;;;;;;;;;;4983189;28;20054;-92
2024/01/24 03:16:57;;;;;;;0.00;0.00;;;;;;;;;;4982599;28;20035;-91
2024/01/24 03:19:23;;;;;;;0.00;0.00;;;;;;;;;;5010569;28;20397;-92
2024/01/24 03:21:49;;;;;;;0.00;0.00;;;;;;;;;;4999579;28;20526;-94
2024/01/24 03:24:15;;;;;;;0.00;0.00;;;;;;;;;;5005960;28;20030;-91
2024/01/24 03:26:41;;;;;;;0.00;0.00;;;;;;;;;;5003268;28;20090;-92
2024/01/24 03:29:07;;;;;;;0.00;0.00;;;;;;;;;;5001847;28;20042;-92
2024/01/24 03:31:32;;;;;;;0.00;0.00;;;;;;;;;;5003815;28;20510;-92
2024/01/24 03:33:58;;;;;;;0.00;0.00;;;;;;;;;;4999607;28;20032;-92
2024/01/24 03:36:24;;;;;;;0.00;0.00;;;;;;;;;;5004755;28;20074;-92
2024/01/24 03:38:50;;;;;;;0.00;0.00;;;;;;;;;;4998118;28;20031;-92
2024/01/24 03:41:16;;;;;;;0.00;0.00;;;;;;;;;;5002594;28;20047;-92
2024/01/24 03:43:42;;;;;;;0.00;0.00;;;;;;;;;;5006458;28;20139;-92
2024/01/24 03:46:08;;;;;;;0.00;0.00;;;;;;;;;;5001010;28;20041;-92
2024/01/24 03:48:34;;;;;;;0.00;0.00;;;;;;;;;;4992839;28;20593;-92
2024/01/24 03:51:00;;;;;;;0.00;0.00;;;;;;;;;;4999226;28;20039;-92
2024/01/24 03:53:26;;;;;;;0.00;0.00;;;;;;;;;;5000667;28;20027;-91
2024/01/24 03:55:52;;;;;;;0.00;0.00;;;;;;;;;;5003444;28;20030;-92
2024/01/24 03:58:18;;;;;;;0.00;0.00;;;;;;;;;;5003269;28;20038;-92
2024/01/24 04:00:45;;;;;;;0.00;0.00;;;;;;;;;;5007387;28;20026;-92
2024/01/24 04:03:11;;;;;;;0.00;0.00;;;;;;;;;;4970326;28;20043;-91
2024/01/24 04:05:37;;;;;;;0.00;0.00;;;;;;;;;;5000005;28;20035;-93
2024/01/24 04:08:03;;;;;;;0.00;0.00;;;;;;;;;;5001221;28;20225;-92
2024/01/24 04:10:29;;;;;;;0.00;0.00;;;;;;;;;;4998704;28;20041;-91
2024/01/24 04:12:55;;;;;;;0.00;0.00;;;;;;;;;;5002759;28;20419;-92
2024/01/24 04:15:21;;;;;;;0.00;0.00;;;;;;;;;;5002289;28;20498;-92
2024/01/24 04:17:47;;;;;;;0.00;0.00;;;;;;;;;;5002794;28;20085;-93
2024/01/24 04:20:13;;;;;;;0.00;0.00;;;;;;;;;;5008235;28;20034;-92
2024/01/24 04:22:39;;;;;;;0.00;0.00;;;;;;;;;;5003748;28;20035;-93
2024/01/24 04:25:06;;;;;;;0.00;0.00;;;;;;;;;;5003653;28;20035;-93
2024/01/24 04:27:31;;;;;;;0.00;0.00;;;;;;;;;;5006849;28;20035;-92
2024/01/24 04:29:57;;;;;;;0.00;0.00;;;;;;;;;;5005263;28;20037;-92
2024/01/24 04:32:24;;;;;;;0.00;0.00;;;;;;;;;;5008981;28;20062;-91
2024/01/24 04:34:50;;;;;;;0.00;0.00;;;;;;;;;;5007126;28;20098;-92
2024/01/24 04:37:16;;;;;;;0.00;0.00;;;;;;;;;;5002856;28;20034;-91
2024/01/24 04:39:41;;;;;;;0.00;0.00;;;;;;;;;;5006224;28;20035;-92
2024/01/24 04:42:07;;;;;;;0.00;0.00;;;;;;;;;;5008704;28;20098;-91
2024/01/24 04:44:33;;;;;;;0.00;0.00;;;;;;;;;;4997736;28;20027;-92
2024/01/24 04:47:01;;;;;;;0.00;0.00;;;;;;;;;;5004824;28;20031;-91
2024/01/24 04:49:26;;;;;;;0.00;0.00;;;;;;;;;;5005577;28;20089;-91
2024/01/24 04:51:52;;;;;;;0.00;0.00;;;;;;;;;;5003906;28;20446;-93
2024/01/24 04:54:18;;;;;;;0.00;0.00;;;;;;;;;;5004508;28;20055;-92
2024/01/24 04:56:45;;;;;;;0.00;0.00;;;;;;;;;;5005779;28;20121;-90
2024/01/24 04:59:12;;;;;;;0.00;0.00;;;11.70;99.90;;;;;;4976140;28;20093;-92
2024/01/24 05:01:38;;;;;;;0.00;0.00;;;;;;;;;;4993053;28;20024;-90
2024/01/24 05:04:04;;;;;;;0.00;0.00;;;;;;;;;;4997397;28;20038;-92
2024/01/24 05:06:30;;;;;;;0.00;0.00;;;;;;;;;;4999316;28;21203;-92
2024/01/24 05:08:56;;;;;;;0.00;0.00;;;;;;;;;;5003194;28;20030;-91
2024/01/24 05:11:22;;;;;;;0.00;0.00;;;;;;;;;;4994436;28;20030;-92
2024/01/24 05:13:48;;;;;;;0.00;0.00;;;;;;;;;;4993588;28;20026;-92
2024/01/24 05:16:15;;;;;;;0.00;0.00;;;;;;;;;;5002196;28;20081;-92
2024/01/24 05:18:41;;;;;;;0.00;0.00;;;;;;;;;;4966587;28;20034;-89
2024/01/24 05:21:07;;;;;;;0.00;0.00;;;;;;;;;;4993873;28;20125;-92
2024/01/24 05:23:33;;;;;;;0.00;0.00;;;;;;;;;;4977981;28;20037;-92
2024/01/24 05:25:59;;;;;;;0.00;0.00;;;;;;;;;;4973632;28;20049;-91
2024/01/24 05:28:25;;;;;;;0.00;0.00;;;;;;;;;;4996316;28;20027;-92
2024/01/24 05:30:51;;;;;;;0.00;0.00;;;;;;;;;;5001596;28;20041;-92
2024/01/24 05:33:17;;;;;;;0.00;0.00;;;;;;;;;;4974272;28;20035;-92
2024/01/24 05:35:42;;;;;;;0.00;0.00;;;;;;;;;;4998377;28;20027;-91
2024/01/24 05:38:08;;;;;;;0.00;0.00;;;;;;;;;;4998940;28;20105;-92
2024/01/24 05:40:34;;;;;;;0.00;0.00;;;;;;;;;;4998275;28;20035;-91
2024/01/24 05:43:02;;;;;;;0.00;0.00;;;;;;;;;;5005052;28;20471;-92
2024/01/24 05:45:28;;;;;;;0.00;0.00;;;;;;;;;;4970983;28;20519;-91
2024/01/24 05:47:54;;;;;;;0.00;0.00;;;;;;;;;;4977907;28;20035;-91
2024/01/24 05:50:20;;;;;;;0.00;0.00;;;;;;;;;;5000031;28;20568;-91
2024/01/24 05:52:46;;;;;;;0.00;0.00;;;;;;;;;;4996049;28;20126;-91
2024/01/24 05:55:12;;;;;;;0.00;0.00;;;;;;;;;;4965172;28;20063;-91
2024/01/24 05:57:41;;;;;;;0.00;0.00;;;11.40;99.90;;;;;;4997978;28;20031;-91
2024/01/24 06:00:10;;;;;;;0.00;0.00;;;11.30;99.90;;;;;;4985356;28;20408;-90
2024/01/24 06:02:36;;;;;;;0.00;0.00;;;11.40;99.90;;;;;;4979130;28;20081;-92
2024/01/24 06:05:02;;;;;;;0.00;0.00;;;;;;;;;;4965439;28;20023;-92
2024/01/24 06:07:28;;;;;;;0.00;0.00;;;;;;;;;;4988010;28;20441;-91
2024/01/24 06:09:54;;;;;;;0.00;0.00;;;;;;;;;;4998575;28;20038;-91
2024/01/24 06:12:20;;;;;;;0.00;0.00;;;;;;;;;;4996187;28;20034;-90
2024/01/24 06:14:46;;;;;;;0.00;0.00;;;;;;;;;;4994037;28;20036;-91
2024/01/24 06:17:12;;;;;;;0.00;0.00;;;;;;;;;;4997378;28;20035;-91
2024/01/24 06:19:47;;;;;;;0.00;0.00;;;;;;;;;;4966224;28;20034;-91
2024/01/24 06:22:19;;;;;;;0.00;0.00;;;;;;;;;;4992884;28;20035;-91
2024/01/24 06:24:45;;;;;;;0.00;0.00;;;;;;;;;;4993797;28;20031;-91
2024/01/24 06:27:11;;;;;;;0.00;0.00;;;;;;;;;;4971704;28;20458;-91
2024/01/24 06:29:37;;;;;;;0.00;0.00;;;;;;;;;;5004811;28;20080;-91
2024/01/24 06:32:04;;;;;;;0.00;0.00;;;;;;;;;;5007138;28;20057;-91
2024/01/24 06:34:30;;;;;;;0.00;0.00;;;;;;;;;;5002179;28;20031;-91
2024/01/24 06:36:56;;;;;;;0.00;0.00;;;;;;;;;;4997041;28;20031;-91
2024/01/24 06:39:21;;;;;;;0.00;0.00;;;;;;;;;;5002469;28;20169;-92
2024/01/24 06:41:47;;;;;;;0.00;0.00;;;;;;;;;;4999138;28;20060;-91
2024/01/24 06:44:14;;;;;;;0.00;0.00;;;;;;;;;;5005127;28;20058;-92
2024/01/24 06:46:44;;;;;;;0.00;0.00;;;11.60;99.90;;;;;;5002734;28;20058;-92
2024/01/24 06:49:10;;;;;;;0.00;0.00;;;;;;;;;;5002394;28;20034;-92
2024/01/24 06:51:39;;;;;;;0.00;0.00;;;11.70;99.90;;;;;;4998700;28;20126;-91
2024/01/24 06:54:06;;;;;;;0.00;0.00;;;11.60;99.90;;;;;;4977048;28;20077;-92
2024/01/24 06:56:32;;;;;;;0.00;0.00;;;;;;;;;;4978028;28;20025;-90
2024/01/24 06:58:58;;;;;;;0.00;0.00;;;;;;;;;;5004889;28;20403;-91
2024/01/24 07:01:24;;;;;;;0.00;0.00;;;;;;;;;;4998403;28;20043;-91
2024/01/24 07:03:50;;;;;;;0.00;0.00;;;;;;;;;;5012938;28;20062;-91
2024/01/24 07:06:15;;;;;;;0.00;0.00;;;11.60;99.90;;;;;;5012370;28;20035;-91
2024/01/24 07:08:42;;;;;;;0.00;0.00;;;;;;;;;;5009042;28;20494;-90
2024/01/24 07:11:09;;;;;;;0.00;0.00;;;;;;;;;;4970124;28;20031;-91
2024/01/24 07:13:34;;;;;;;0.00;0.00;;;;;;;;;;5009646;28;20026;-90
2024/01/24 07:16:03;;;;;;;0.00;0.00;;;;;;;;;;5001629;28;20034;-91
2024/01/24 07:18:31;;;;;;;0.00;0.00;;;;;;;;;;5001106;28;20141;-91
2024/01/24 07:20:57;;;;;;;0.00;0.00;;;;;;;;;;4999582;28;20286;-91
2024/01/24 07:23:23;;;;;;;0.00;0.00;;;;;;;;;;4966967;28;20283;-91
2024/01/24 07:25:49;;;;;;;0.00;0.00;;;;;;;;;;4994354;28;20409;-91
2024/01/24 07:28:15;;;;;;;0.00;0.00;;;;;;;;;;5001339;28;20114;-91
2024/01/24 07:30:40;;;;;;;0.00;0.00;;;;;;;;;;4973291;28;20449;-90
2024/01/24 07:33:07;;;;;;;0.00;0.00;;;;;;;;;;5003873;28;20065;-91
2024/01/24 07:35:33;;;;;;;0.00;0.00;;;;;;;;;;4997559;28;20031;-91
2024/01/24 07:37:59;;;;;;;0.00;0.00;;;;;;;;;;5005247;28;20034;-91
2024/01/24 07:40:25;;;;;;;0.00;0.00;;;;;;;;;;5000568;28;20122;-90
2024/01/24 07:42:51;;;;;;;0.00;0.00;;;;;;;;;;4998060;28;20039;-91
2024/01/24 07:45:18;;;;;;;0.00;0.00;;;;;;;;;;5002678;28;20035;-91
2024/01/24 07:47:44;;;;;;;0.00;0.00;;;;;;;;;;4973626;28;20544;-91
2024/01/24 07:50:11;;;;;;;0.00;0.00;;;;;;;;;;5002674;28;20035;-92
2024/01/24 07:52:37;;;;;;;0.00;0.00;;;;;;;;;;5000274;28;20058;-90
2024/01/24 07:55:03;;;;;;;0.00;0.00;;;;;;;;;;5005350;28;20038;-90
2024/01/24 07:57:29;;;;;;;0.00;0.00;;;;;;;;;;5014433;28;20033;-91
2024/01/24 07:59:55;;;;;;;0.00;0.00;;;;;;;;;;5008669;28;20035;-91
2024/01/24 08:02:21;;;;;;;0.00;0.00;;;;;;;;;;4996996;28;20038;-91
2024/01/24 08:04:47;;;;;;;0.00;0.00;;;;;;;;;;5006514;28;20038;-91
2024/01/24 08:07:13;;;;;;;0.00;0.00;;;;;;;;;;4980149;28;20669;-89
2024/01/24 08:09:39;;;;;;;0.00;0.00;;;;;;;;;;5006336;28;20031;-90
2024/01/24 08:12:05;;;;;;;0.00;0.00;;;;;;;;;;5002018;28;20121;-92
2024/01/24 08:14:31;;;;;;;0.00;0.00;;;;;;;;;;5003427;28;20104;-91
2024/01/24 08:17:08;;;;;;;0.00;0.00;;;11.20;99.90;;;;;;5005689;28;20402;-91
2024/01/24 08:19:34;;;;;;;0.00;0.00;;;;;;;;;;4980433;28;20074;-93
2024/01/24 08:22:01;;;;;;;0.00;0.00;;;;;;;;;;4981876;28;20113;-90
2024/01/24 08:24:27;;;;;;;0.00;0.00;;;;;;;;;;5009513;28;20030;-91
2024/01/24 08:26:53;;;;;;;0.00;0.00;;;;;;;;;;4973556;28;20085;-91
2024/01/24 08:29:19;;;;;;;0.00;0.00;;;;;;;;;;5005424;28;20022;-91
2024/01/24 08:31:45;;;;;;;0.00;0.00;;;;;;;;;;5005825;28;20041;-91
2024/01/24 08:34:11;;;;;;;0.05;0.05;;;;;;;;;;5018894;28;20053;-91
2024/01/24 08:36:38;;;;;;;0.00;0.00;;;;;;;;;;4978195;28;20090;-90
2024/01/24 08:39:06;;;;;;;0.00;0.00;;;;;;;;;;5015858;28;20049;-91
2024/01/24 08:41:32;;;;;;;0.00;0.00;;;;;;;;;;5005253;28;20039;-91
2024/01/24 08:43:58;;;;;;;0.00;0.00;;;;;;;;;;5011001;28;20044;-91
2024/01/24 08:46:24;;;;;;;0.00;0.00;;;;;;;;;;4998702;28;20125;-92
2024/01/24 08:48:51;;;;;;;0.00;0.00;;;;;;;;;;5009526;28;20045;-90
2024/01/24 08:51:17;;;;;;;0.00;0.00;;;;;;;;;;4975429;28;20042;-91
2024/01/24 08:53:43;;;;;;;0.00;0.00;;;;;;;;;;5011509;28;20034;-91
2024/01/24 08:56:12;;;;;;;0.00;0.00;;;;;;;;;;4970273;28;20581;-91
2024/01/24 08:58:38;;;;;;;0.00;0.00;;;;;;;;;;5016769;28;20021;-93
2024/01/24 09:01:04;;;;;;;0.00;0.00;;;;;;;;;;5025797;28;20027;-90
2024/01/24 09:03:30;;;;;;;0.00;0.00;;;;;;;;;;4997668;28;20022;-91
2024/01/24 09:05:56;;;;;;;0.00;0.00;;;;;;;;;;5011180;28;20038;-90
2024/01/24 09:08:22;;;;;;;0.00;0.00;;;;;;;;;;5010438;28;20031;-91
2024/01/24 09:10:48;;;;;;;0.00;0.00;;;;;;;;;;5009976;28;20042;-91
2024/01/24 09:13:19;;;;;;;0.00;0.00;;;;;;;;;;5009258;28;20033;-91
2024/01/24 09:15:45;;;;;;;0.00;0.00;;;;;;;;;;5000653;28;20030;-90
2024/01/24 09:18:11;;;;;;;0.00;0.00;;;;;;;;;;4969684;28;20034;-90
2024/01/24 09:20:37;;;;;;;0.00;0.00;;;;;;;;;;5013421;28;20118;-90
2024/01/24 09:23:03;;;;;;;0.00;0.00;;;;;;;;;;5008861;28;20491;-91
2024/01/24 09:25:29;;;;;;;0.00;0.00;;;;;;;;;;5003544;28;20117;-90
2024/01/24 09:27:56;;;;;;;0.00;0.00;;;;;;;;;;5012258;28;20209;-91
2024/01/24 09:30:22;;;;;;;0.00;0.00;;;;;;;;;;5010738;28;20038;-90
2024/01/24 09:32:47;;;;;;;0.00;0.00;;;;;;;;;;5017042;28;20507;-92
2024/01/24 09:35:13;;;;;;;0.00;0.00;;;;;;;;;;4977917;28;20035;-90
2024/01/24 09:37:39;;;;;;;0.00;0.00;;;;;;;;;;5013223;28;20035;-89
2024/01/24 09:40:06;;;;;;;0.00;0.00;;;;;;;;;;4962352;28;20050;-88
2024/01/24 09:42:37;;;;;;;0.00;0.00;;;11.20;99.90;;;;;;5006158;28;20029;-90
2024/01/24 09:45:03;;;;;;;0.00;0.00;;;;;;;;;;4977159;28;20039;-90
2024/01/24 09:47:29;;;;;;;0.00;0.00;;;;;;;;;;4974747;28;20026;-89
2024/01/24 09:49:55;;;;;;;0.00;0.00;;;;;;;;;;5001427;28;20038;-90
2024/01/24 09:52:25;;;;;;;0.00;0.00;;;11.10;99.90;;;;;;4976347;28;20062;-90
2024/01/24 09:54:57;;;;;;;0.00;0.00;;;11.10;99.90;;;;;;4989346;28;20035;-91
2024/01/24 09:57:23;;;;;;;0.00;0.00;;;11.20;99.90;;;;;;4971425;28;20031;-90
2024/01/24 09:59:49;;;;;;;0.00;0.00;;;;;;;;;;4975188;28;20030;-90
2024/01/24 10:02:15;;;;;;;0.00;0.00;;;;;;;;;;4996161;28;20065;-88
2024/01/24 10:04:43;;;;;;;0.10;0.10;;;11.00;99.90;;;;;;4989128;28;20044;-91
2024/01/24 10:07:09;;;;;;;0.00;0.00;;;;;;;;;;4994904;28;20407;-91
2024/01/24 10:09:35;;;;;;;0.00;0.00;;;;;;;;;;4994429;28;20062;-91
2024/01/24 10:12:01;;;;;;;0.00;0.00;;;;;;;;;;4998195;28;20057;-92
2024/01/24 10:14:28;;;;;;;0.00;0.00;;;;;;;;;;4998405;28;20133;-92
2024/01/24 10:16:54;;;;;;;0.00;0.00;;;;;;;;;;5002987;28;20128;-91
2024/01/24 10:19:24;;;;;;;0.00;0.00;;;11.00;99.90;;;;;;4999129;28;20014;-92
2024/01/24 10:21:50;;;;;;;;;;;11.10;99.90;;;;;;4975342;28;20034;-93
2024/01/24 10:24:16;;;;;;;0.00;0.00;;;;;;;;;;4970797;28;19937;-91
2024/01/24 10:26:44;;;;;;;0.00;0.00;;;;;;;;;;4996609;28;20078;-92
2024/01/24 10:29:14;;;;;;;0.00;0.00;;;11.00;99.90;;;;;;4995806;28;20027;-91
2024/01/24 10:31:40;;;;;;;0.00;0.00;;;;;;;;;;4974137;28;20133;-88
2024/01/24 10:34:06;;;;;;;0.00;0.00;;;;;;;;;;4999227;28;20031;-89
2024/01/24 10:36:32;;;;;;;0.00;0.00;;;;;;;;;;5010035;28;20030;-91
2024/01/24 10:39:00;;;;;;;0.00;0.00;;;11.00;99.90;;;;;;5003341;28;20054;-89
2024/01/24 10:41:39;;;;;;;0.00;0.00;;;11.00;99.90;;;;;;4976006;28;20046;-88
2024/01/24 10:44:07;;;;;;;0.00;0.00;;;11.00;99.90;;;;;;5005207;28;20031;-90
2024/01/24 10:46:33;;;;;;;0.00;0.00;;;;;;;;;;4989813;28;20033;-87
2024/01/24 10:49:01;;;;;;;0.00;0.00;;;11.00;99.90;;;;;;4996785;28;20030;-89
2024/01/24 10:51:27;;;;;;;0.00;0.00;;;10.90;99.90;;;;;;4975197;28;20042;-89
2024/01/24 10:53:54;;;;;;;0.00;0.00;;;;;;;;;;4973073;28;20027;-89
2024/01/24 10:56:20;;;;;;;0.00;0.00;;;;;;;;;;5004405;28;20022;-89
2024/01/24 10:58:48;;;;;;;0.00;0.00;;;;;;;;;;5004801;28;20034;-88
2024/01/24 11:01:13;;;;;;;0.00;0.00;;;;;;;;;;5000317;28;20046;-88
2024/01/24 11:03:39;;;;;;;0.00;0.00;;;;;;;;;;4977826;28;20027;-89
2024/01/24 11:06:12;;;;;;;0.00;0.00;;;10.90;99.90;;;;;;5006871;28;20035;-89
2024/01/24 11:08:55;;;;;;;0.00;0.00;;;11.00;99.90;;;;;;4971898;28;20045;-88
2024/01/24 11:11:22;;;;;;;0.00;0.00;;;10.90;99.90;;;;;;4989059;28;20466;-89
2024/01/24 11:13:51;;;;;;;0.00;0.00;;;11.00;99.90;;;;;;4963429;28;20058;-88
2024/01/24 11:16:25;;;;;;;0.00;0.00;;;10.90;99.90;;;;;;4995073;28;20058;-88
2024/01/24 11:18:51;;;;;;;0.00;0.00;;;;;;;;;;5000903;28;20031;-89
2024/01/24 11:21:21;;;;;;;0.00;0.00;;;11.10;99.90;;;;;;5000743;28;20362;-88
2024/01/24 11:23:48;;;;;;;0.00;0.00;;;11.00;99.90;;;;;;4969182;28;20046;-88
2024/01/24 11:26:17;;;;;;;0.00;0.00;;;11.00;99.90;;;;;;4970011;28;20038;-88
2024/01/24 11:28:43;;;;;;;0.00;0.00;;;;;;;;;;4990049;28;20457;-90
2024/01/24 11:31:10;;;;;;;0.00;0.00;;;;;;;;;;4966000;28;20043;-86
2024/01/24 11:33:36;;;;;;;0.00;0.00;;;;;;;;;;4990981;28;20085;-89
2024/01/24 11:36:12;;;;;;;0.00;0.00;;;11.00;99.90;;;;;;5002873;28;20031;-89
2024/01/24 11:38:39;;;;;;;0.00;0.00;;;;;;;;;;4967722;28;20027;-89
2024/01/24 11:41:23;;;;;;;0.00;0.00;;;11.10;99.90;;;;;;4996039;28;20065;-89
2024/01/24 11:43:49;;;;;;;0.00;0.00;;;;;;;;;;4963817;28;20035;-89
2024/01/24 11:46:16;;;;;;;0.00;0.00;;;;;;;;;;4999739;28;20042;-88
2024/01/24 11:48:42;;;;;;;0.00;0.00;;;;;;;;;;4977637;28;20504;-88
2024/01/24 11:51:09;;;;;;;0.00;0.00;;;11.00;99.90;;;;;;4973675;28;20125;-89
2024/01/24 11:53:35;;;;;;;0.00;0.00;;;;;;;;;;5001523;28;20181;-90
2024/01/24 11:56:03;;;;;;;0.00;0.00;;;11.00;99.90;;;;;;4998676;28;20466;-90
2024/01/24 11:58:29;;;;;;;0.00;0.00;;;;;;;;;;4970754;28;20582;-89
2024/01/24 12:01:03;;;;;;;0.00;0.00;;;11.00;99.90;;;;;;4988154;28;20038;-87
2024/01/24 12:03:30;;;;;;;0.00;0.00;;;;;;;;;;4977405;28;20097;-89
2024/01/24 12:05:56;;;;;;;0.00;0.00;;;;;;;;;;5001665;28;20056;-89
2024/01/24 12:08:22;;;;;;;0.00;0.00;;;;;;;;;;4997556;28;20038;-89
2024/01/24 12:10:48;;;;;;;0.00;0.00;;;;;;;;;;4995567;28;20039;-89
2024/01/24 12:13:16;;;;;;;0.00;0.00;;;10.90;99.90;;;;;;4972049;28;20058;-89
2024/01/24 12:15:42;;;;;;;0.00;0.00;;;;;;;;;;5004775;28;20041;-89
2024/01/24 12:18:09;;;;;;;0.00;0.00;;;10.90;99.90;;;;;;4972308;28;20061;-89
2024/01/24 12:20:36;;;;;;;0.00;0.00;;;10.90;99.90;;;;;;4975163;28;20077;-88
2024/01/24 12:23:02;;;;;;;0.00;0.00;;;;;;;;;;4973921;28;20049;-89
2024/01/24 12:25:28;;;;;;;0.00;0.00;;;;;;;;;;4974114;28;20413;-88
2024/01/24 12:27:56;;;;;;;0.00;0.00;;;;;;;;;;5003093;28;20497;-89
2024/01/24 12:30:32;;;;;;;0.00;0.00;;;;;;;;;;4995162;28;21089;-87
2024/01/24 12:32:59;;;;;;;0.00;0.00;;;;;;;;;;4993247;28;20035;-89
2024/01/24 12:35:25;;;;;;;0.00;0.00;;;;;;;;;;4996628;28;20027;-89
2024/01/24 12:37:51;;;;;;;0.00;0.00;;;10.90;99.90;;;;;;4972782;28;20053;-89
2024/01/24 12:40:17;;;;;;;0.00;0.00;;;;;;;;;;4968189;28;20035;-87
2024/01/24 12:42:43;;;;;;;0.00;0.00;;;;;;;;;;4996563;28;20031;-89
2024/01/24 12:45:11;;;;;;;0.00;0.00;;;10.90;99.90;;;;;;4991644;28;20034;-88
2024/01/24 12:47:37;;;;;;;0.00;0.00;;;;;;;;;;4972199;28;20113;-88
2024/01/24 12:50:03;;;;;;;0.00;0.00;;;;;;;;;;4972515;28;20063;-88
2024/01/24 12:52:29;;;;;;;0.00;0.00;;;;;;;;;;5010590;28;20545;-87
2024/01/24 12:54:55;;;;;;;0.00;0.00;;;;;;;;;;4971950;28;20050;-89
2024/01/24 12:57:23;;;;;;;0.00;0.00;;;10.90;99.90;;;;;;4973314;28;20452;-89
2024/01/24 12:59:49;;;;;;;0.00;0.00;;;;;;;;;;4976915;28;20466;-87
2024/01/24 13:02:15;;;;;;;0.00;0.00;;;;;;;;;;4997040;28;20031;-88
2024/01/24 13:04:43;;;;;;;0.10;0.10;;;;;;;;;;4997251;28;20059;-89
2024/01/24 13:07:09;;;;;;;0.00;0.00;;;;;;;;;;4999237;28;20038;-89
2024/01/24 13:09:35;;;;;;;0.00;0.00;;;;;;;;;;4970260;28;20035;-87
2024/01/24 13:12:01;;;;;;;0.00;0.00;;;;;;;;;;4967972;28;20047;-87
2024/01/24 13:14:28;;;;;;;0.00;0.00;;;;;;;;;;4966365;28;20042;-89
2024/01/24 13:16:54;;;;;;;0.00;0.00;;;;;;;;;;4998679;28;20525;-89
2024/01/24 13:19:20;;;;;;;0.00;0.00;;;;;;;;;;5001181;28;20027;-88
2024/01/24 13:21:45;;;;;;;0.00;0.00;;;10.60;99.90;;;;;;4971337;28;20035;-90
2024/01/24 13:24:12;;;;;;;0.00;0.00;;;;;;;;;;4969482;28;20085;-88
2024/01/24 13:26:38;;;;;;;0.00;0.00;;;;;;;;;;4978326;28;20037;-89
2024/01/24 13:29:04;;;;;;;0.00;0.00;;;;;;;;;;4965859;28;20035;-89
2024/01/24 13:31:30;;;;;;;0.00;0.00;;;;;;;;;;4995146;28;20035;-88
2024/01/24 13:42:43;;;;;;;0.00;0.00;;;10.60;99.90;;;;;;4951834;28;20082;-90
2024/01/24 13:45:09;;;;;;;0.00;0.00;;;;;;;;;;4931387;29;20129;-90
2024/01/24 13:47:47;;;;;;;0.00;0.00;;;12.30;99.90;;;;;;4979866;28;20034;-90
2024/01/24 13:50:13;;;;;;;0.00;0.00;;;;;;;;;;5071272;22;20046;-90
2024/01/24 13:52:39;;;;;;;0.00;0.00;;;;;;;;;;5013236;28;20044;-90
2024/01/24 13:55:07;;;;;;;0.00;0.00;;;;;;;;;;5019337;28;20459;-91
2024/01/24 13:57:33;;;;;;;0.00;0.00;;;;;;;;;;5019144;28;20033;-90
2024/01/24 13:59:59;;;;;;;0.00;0.00;;;;;;;;;;5012482;28;20029;-90
2024/01/24 14:02:25;;;;;;;0.00;0.00;;;;;;;;;;5009621;28;20026;-91
2024/01/24 14:04:51;;;;;;;0.00;0.00;;;;;;;;;;5010305;28;20068;-90
2024/01/24 14:07:17;;;;;;;0.00;0.00;;;;;;;;;;5028617;28;20088;-91
2024/01/24 14:09:43;;;;;;;0.03;0.03;;;;;;;;;;5011587;28;20047;-88
2024/01/24 14:12:09;;;;;;;0.00;0.00;;;;;;;;;;5010056;28;20117;-91
2024/01/24 14:14:35;;;;;;;0.00;0.00;;;;;;;;;;5013055;28;20022;-89
2024/01/24 14:17:01;;;;;;;0.00;0.00;;;;;;;;;;5010122;28;20030;-90
2024/01/24 14:19:26;;;;;;;0.00;0.00;;;;;;;;;;5012259;28;20018;-90
2024/01/24 14:21:52;;;;;;;0.00;0.00;;;;;;;;;;5012854;28;20037;-91
2024/01/24 14:24:18;;;;;;;0.00;0.00;;;;;;;;;;5007378;28;20068;-92
2024/01/24 14:26:44;;;;;;;0.00;0.00;;;;;;;;;;5010000;28;20064;-90
2024/01/24 14:29:10;;;;;;;0.00;0.00;;;;;;;;;;5007428;28;20030;-90